DE17H LFRS-EHAM
Flight info
| Callsign | DE17H |
|---|---|
| Flight time | N/A |
| Altitude | 30000 |
| Route | ANG UL976 RONAX UN873 BAZOS DCT BELDI DCT LUMIL DCT BELOB UY873 DENUT |
| Aircraft | C750/M-SBDE3FGHRWXY/S |
Departure
| Time | 2026-05-07 12:00 |
|---|---|
| Airport | Nantes Atlantique Airport (LFRS) |
Arrival
| Time | N/A |
|---|---|
| Airport | Amsterdam Airport Schiphol (EHAM) |
| Time | Latitude | Longitude | Altitude | Speed | Heading |
|---|---|---|---|---|---|
| 2026-05-07 11:30 | 47.16008 | -1.60152 | 84 ft | 0 kts | 299° |
| 2026-05-07 11:43 | 47.16009 | -1.60152 | 84 ft | 0 kts | 299° |
| 2026-05-07 11:43 | 47.16008 | -1.60152 | 84 ft | 0 kts | 299° |
| 2026-05-07 11:43 | 47.16007 | -1.60140 | 85 ft | 2 kts | 276° |
| 2026-05-07 11:44 | 47.16005 | -1.60119 | 85 ft | 2 kts | 277° |
| 2026-05-07 11:44 | 47.16004 | -1.60106 | 85 ft | 0 kts | 285° |
| 2026-05-07 11:44 | 47.16001 | -1.60101 | 85 ft | 0 kts | 309° |
| 2026-05-07 11:48 | 47.16003 | -1.60104 | 85 ft | 1 kts | 310° |
| 2026-05-07 11:48 | 47.16014 | -1.60124 | 85 ft | 3 kts | 310° |
| 2026-05-07 11:48 | 47.16036 | -1.60162 | 84 ft | 6 kts | 310° |
| 2026-05-07 11:49 | 47.16051 | -1.60229 | 83 ft | 8 kts | 244° |
| 2026-05-07 11:49 | 47.16001 | -1.60284 | 82 ft | 4 kts | 207° |
| 2026-05-07 11:49 | 47.15999 | -1.60285 | 82 ft | 0 kts | 207° |
| 2026-05-07 11:49 | 47.15991 | -1.60291 | 82 ft | 1 kts | 206° |
| 2026-05-07 11:50 | 47.15975 | -1.60303 | 81 ft | 3 kts | 207° |
| 2026-05-07 11:50 | 47.15952 | -1.60321 | 81 ft | 4 kts | 208° |
| 2026-05-07 11:50 | 47.15923 | -1.60345 | 81 ft | 5 kts | 205° |
| 2026-05-07 11:50 | 47.15887 | -1.60371 | 80 ft | 6 kts | 206° |
| 2026-05-07 11:51 | 47.15849 | -1.60397 | 80 ft | 5 kts | 202° |
| 2026-05-07 11:51 | 47.15816 | -1.60417 | 81 ft | 4 kts | 207° |
| 2026-05-07 11:51 | 47.15787 | -1.60441 | 81 ft | 4 kts | 210° |
| 2026-05-07 11:51 | 47.15757 | -1.60467 | 81 ft | 5 kts | 210° |
| 2026-05-07 11:52 | 47.15726 | -1.60493 | 81 ft | 5 kts | 210° |
| 2026-05-07 11:52 | 47.15694 | -1.60520 | 81 ft | 5 kts | 209° |
| 2026-05-07 11:52 | 47.15662 | -1.60547 | 81 ft | 5 kts | 209° |
| 2026-05-07 11:52 | 47.15628 | -1.60574 | 81 ft | 5 kts | 209° |
| 2026-05-07 11:53 | 47.15594 | -1.60601 | 81 ft | 5 kts | 201° |
| 2026-05-07 11:53 | 47.15559 | -1.60624 | 81 ft | 5 kts | 208° |
| 2026-05-07 11:53 | 47.15524 | -1.60653 | 81 ft | 5 kts | 207° |
| 2026-05-07 11:53 | 47.15501 | -1.60668 | 81 ft | 5 kts | 205° |
| 2026-05-07 11:54 | 47.15462 | -1.60697 | 82 ft | 3 kts | 207° |
| 2026-05-07 11:54 | 47.15442 | -1.60713 | 82 ft | 2 kts | 207° |
| 2026-05-07 11:54 | 47.15429 | -1.60723 | 82 ft | 1 kts | 207° |
| 2026-05-07 11:54 | 47.15423 | -1.60727 | 82 ft | 0 kts | 207° |
| 2026-05-07 11:55 | 47.15408 | -1.60738 | 83 ft | 4 kts | 207° |
| 2026-05-07 11:55 | 47.15369 | -1.60768 | 83 ft | 7 kts | 207° |
| 2026-05-07 11:55 | 47.15317 | -1.60806 | 84 ft | 9 kts | 206° |
| 2026-05-07 11:55 | 47.15248 | -1.60858 | 84 ft | 12 kts | 206° |
| 2026-05-07 11:56 | 47.15162 | -1.60926 | 84 ft | 15 kts | 207° |
| 2026-05-07 11:56 | 47.15060 | -1.60998 | 84 ft | 17 kts | 208° |
| 2026-05-07 11:56 | 47.14949 | -1.61087 | 84 ft | 19 kts | 208° |
| 2026-05-07 11:56 | 47.14825 | -1.61182 | 84 ft | 21 kts | 206° |
| 2026-05-07 11:57 | 47.14686 | -1.61287 | 81 ft | 23 kts | 204° |
| 2026-05-07 11:57 | 47.14531 | -1.61406 | 79 ft | 26 kts | 206° |
| 2026-05-07 11:57 | 47.14365 | -1.61528 | 75 ft | 27 kts | 202° |
| 2026-05-07 11:57 | 47.14202 | -1.61656 | 72 ft | 25 kts | 212° |
| 2026-05-07 11:58 | 47.14143 | -1.61881 | 71 ft | 20 kts | 284° |
| 2026-05-07 11:58 | 47.14194 | -1.61928 | 72 ft | 0 kts | 23° |
| 2026-05-07 11:58 | 47.14205 | -1.61920 | 72 ft | 7 kts | 25° |
| 2026-05-07 11:59 | 47.14366 | -1.61795 | 75 ft | 49 kts | 28° |
| 2026-05-07 11:59 | 47.14858 | -1.61427 | 81 ft | 108 kts | 26° |
| 2026-05-07 11:59 | 47.15671 | -1.60814 | 108 ft | 149 kts | 27° |
| 2026-05-07 11:59 | 47.16627 | -1.60048 | 364 ft | 165 kts | 31° |
| 2026-05-07 12:00 | 47.17664 | -1.59217 | 597 ft | 177 kts | 29° |
| 2026-05-07 12:00 | 47.18870 | -1.58889 | 926 ft | 181 kts | 344° |
| 2026-05-07 12:00 | 47.19918 | -1.59750 | 1448 ft | 170 kts | 323° |
| 2026-05-07 12:00 | 47.20857 | -1.60746 | 1900 ft | 163 kts | 326° |
| 2026-05-07 12:01 | 47.21830 | -1.61555 | 2372 ft | 162 kts | 341° |
| 2026-05-07 12:01 | 47.22916 | -1.61987 | 2867 ft | 160 kts | 351° |
| 2026-05-07 12:01 | 47.23992 | -1.62255 | 3343 ft | 160 kts | 354° |
| 2026-05-07 12:01 | 47.25108 | -1.62456 | 3859 ft | 165 kts | 355° |
| 2026-05-07 12:02 | 47.26264 | -1.62628 | 4384 ft | 171 kts | 356° |
| 2026-05-07 12:02 | 47.27421 | -1.62308 | 4904 ft | 171 kts | 39° |
| 2026-05-07 12:02 | 47.28166 | -1.61006 | 5460 ft | 170 kts | 61° |
| 2026-05-07 12:02 | 47.28795 | -1.59403 | 5627 ft | 198 kts | 63° |
| 2026-05-07 12:03 | 47.29497 | -1.57458 | 5658 ft | 225 kts | 64° |
| 2026-05-07 12:03 | 47.30226 | -1.55360 | 5631 ft | 239 kts | 65° |
| 2026-05-07 12:03 | 47.30991 | -1.53119 | 5651 ft | 249 kts | 65° |
| 2026-05-07 12:03 | 47.31749 | -1.50893 | 6154 ft | 236 kts | 65° |
| 2026-05-07 12:04 | 47.32460 | -1.48797 | 6614 ft | 226 kts | 65° |
| 2026-05-07 12:04 | 47.33140 | -1.46782 | 7080 ft | 215 kts | 65° |
| 2026-05-07 12:04 | 47.33792 | -1.44850 | 7537 ft | 205 kts | 65° |
| 2026-05-07 12:04 | 47.34425 | -1.42968 | 8019 ft | 209 kts | 65° |
| 2026-05-07 12:05 | 47.35071 | -1.41042 | 8529 ft | 213 kts | 64° |
| 2026-05-07 12:05 | 47.35729 | -1.39089 | 9040 ft | 216 kts | 64° |
| 2026-05-07 12:05 | 47.36400 | -1.37095 | 9553 ft | 219 kts | 64° |
| 2026-05-07 12:05 | 47.37081 | -1.35071 | 10067 ft | 222 kts | 64° |
| 2026-05-07 12:06 | 47.37767 | -1.33033 | 10568 ft | 225 kts | 65° |
| 2026-05-07 12:06 | 47.38467 | -1.30950 | 11072 ft | 227 kts | 65° |
| 2026-05-07 12:06 | 47.39163 | -1.28874 | 11566 ft | 228 kts | 65° |
| 2026-05-07 12:06 | 47.39867 | -1.26774 | 12064 ft | 230 kts | 65° |
| 2026-05-07 12:07 | 47.40573 | -1.24665 | 12558 ft | 230 kts | 65° |
| 2026-05-07 12:07 | 47.41280 | -1.22555 | 13056 ft | 231 kts | 65° |
| 2026-05-07 12:07 | 47.41991 | -1.20424 | 13545 ft | 231 kts | 65° |
| 2026-05-07 12:07 | 47.42720 | -1.18236 | 14087 ft | 245 kts | 65° |
| 2026-05-07 12:08 | 47.43478 | -1.15962 | 14617 ft | 255 kts | 65° |
| 2026-05-07 12:08 | 47.44282 | -1.13553 | 15159 ft | 264 kts | 65° |
| 2026-05-07 12:08 | 47.45099 | -1.11101 | 15678 ft | 274 kts | 65° |
| 2026-05-07 12:08 | 47.45954 | -1.08532 | 16208 ft | 283 kts | 65° |
| 2026-05-07 12:09 | 47.46824 | -1.05917 | 16727 ft | 291 kts | 65° |
| 2026-05-07 12:09 | 47.47732 | -1.03185 | 17249 ft | 299 kts | 64° |
| 2026-05-07 12:09 | 47.48656 | -1.00398 | 17761 ft | 306 kts | 64° |
| 2026-05-07 12:09 | 47.49600 | -0.97554 | 18286 ft | 313 kts | 64° |
| 2026-05-07 12:10 | 47.50571 | -0.94618 | 18814 ft | 320 kts | 64° |
| 2026-05-07 12:10 | 47.51554 | -0.91652 | 19337 ft | 326 kts | 64° |
| 2026-05-07 12:10 | 47.52542 | -0.88661 | 19868 ft | 331 kts | 64° |
| 2026-05-07 12:10 | 47.53599 | -0.85592 | 20398 ft | 336 kts | 57° |
| 2026-05-07 12:11 | 47.55177 | -0.83044 | 20960 ft | 339 kts | 42° |
| 2026-05-07 12:11 | 47.56887 | -0.80669 | 21492 ft | 343 kts | 43° |
| 2026-05-07 12:11 | 47.58610 | -0.78244 | 22025 ft | 346 kts | 43° |
| 2026-05-07 12:11 | 47.60374 | -0.75755 | 22570 ft | 349 kts | 43° |
| 2026-05-07 12:12 | 47.62132 | -0.73270 | 23118 ft | 351 kts | 43° |
| 2026-05-07 12:12 | 47.63888 | -0.70786 | 23655 ft | 353 kts | 43° |
| 2026-05-07 12:12 | 47.65669 | -0.68264 | 24198 ft | 354 kts | 43° |
| 2026-05-07 12:12 | 47.67432 | -0.65764 | 24735 ft | 355 kts | 43° |
| 2026-05-07 12:13 | 47.69221 | -0.63224 | 25278 ft | 356 kts | 43° |
| 2026-05-07 12:13 | 47.71005 | -0.60689 | 25806 ft | 356 kts | 43° |
| 2026-05-07 12:13 | 47.72778 | -0.58169 | 26332 ft | 356 kts | 43° |
| 2026-05-07 12:13 | 47.74557 | -0.55635 | 26858 ft | 356 kts | 43° |
| 2026-05-07 12:14 | 47.76339 | -0.53095 | 27389 ft | 355 kts | 43° |
| 2026-05-07 12:14 | 47.78115 | -0.50562 | 27914 ft | 353 kts | 43° |
| 2026-05-07 12:14 | 47.79871 | -0.48056 | 28437 ft | 352 kts | 43° |
| 2026-05-07 12:14 | 47.81632 | -0.45538 | 28966 ft | 350 kts | 43° |
| 2026-05-07 12:15 | 47.83404 | -0.43001 | 29499 ft | 347 kts | 43° |
| 2026-05-07 12:15 | 47.85123 | -0.40540 | 29963 ft | 347 kts | 43° |
| 2026-05-07 12:15 | 47.86911 | -0.37977 | 29996 ft | 359 kts | 43° |
| 2026-05-07 12:15 | 47.88743 | -0.35346 | 30020 ft | 372 kts | 43° |
| 2026-05-07 12:16 | 47.90644 | -0.32615 | 30023 ft | 384 kts | 44° |
| 2026-05-07 12:16 | 47.92586 | -0.29820 | 30024 ft | 395 kts | 44° |
| 2026-05-07 12:16 | 47.94590 | -0.26935 | 30023 ft | 407 kts | 44° |
| 2026-05-07 12:17 | 47.98751 | -0.20933 | 30020 ft | 427 kts | 44° |
| 2026-05-07 12:17 | 48.03104 | -0.14642 | 30018 ft | 445 kts | 44° |
| 2026-05-07 12:18 | 48.07637 | -0.08072 | 30016 ft | 461 kts | 44° |
| 2026-05-07 12:18 | 48.12318 | -0.01269 | 30011 ft | 476 kts | 44° |
| 2026-05-07 12:19 | 48.17118 | 0.05726 | 30010 ft | 488 kts | 44° |
| 2026-05-07 12:19 | 48.22018 | 0.12887 | 30010 ft | 498 kts | 44° |
| 2026-05-07 12:20 | 48.27039 | 0.20244 | 30010 ft | 507 kts | 44° |
| 2026-05-07 12:20 | 48.32106 | 0.27690 | 30010 ft | 514 kts | 44° |
| 2026-05-07 12:21 | 48.37247 | 0.35269 | 30010 ft | 521 kts | 44° |
| 2026-05-07 12:21 | 48.42239 | 0.43176 | 29996 ft | 525 kts | 43° |
| 2026-05-07 12:22 | 48.47982 | 0.50005 | 30025 ft | 528 kts | 41° |
| 2026-05-07 12:22 | 48.53555 | 0.57375 | 30008 ft | 533 kts | 40° |
| 2026-05-07 12:23 | 48.59100 | 0.64810 | 30017 ft | 535 kts | 40° |
| 2026-05-07 12:23 | 48.64632 | 0.72268 | 30015 ft | 536 kts | 41° |
| 2026-05-07 12:24 | 48.70155 | 0.79736 | 30018 ft | 536 kts | 41° |
| 2026-05-07 12:24 | 48.75725 | 0.87292 | 30020 ft | 536 kts | 41° |
| 2026-05-07 12:25 | 48.81286 | 0.94860 | 30021 ft | 536 kts | 41° |
| 2026-05-07 12:25 | 48.86809 | 1.02400 | 30028 ft | 536 kts | 41° |
| 2026-05-07 12:26 | 48.92354 | 1.09994 | 30036 ft | 536 kts | 41° |
| 2026-05-07 12:26 | 48.97854 | 1.17546 | 30041 ft | 536 kts | 41° |
| 2026-05-07 12:27 | 49.03395 | 1.25180 | 30044 ft | 536 kts | 41° |
| 2026-05-07 12:27 | 49.08882 | 1.32762 | 30037 ft | 536 kts | 41° |
| 2026-05-07 12:28 | 49.14383 | 1.40387 | 30031 ft | 534 kts | 41° |
| 2026-05-07 12:28 | 49.19904 | 1.48066 | 30024 ft | 533 kts | 41° |
| 2026-05-07 12:29 | 49.25341 | 1.55655 | 30024 ft | 532 kts | 41° |
| 2026-05-07 12:29 | 49.30820 | 1.63322 | 30025 ft | 532 kts | 41° |
| 2026-05-07 12:30 | 49.36272 | 1.70975 | 30019 ft | 532 kts | 42° |
| 2026-05-07 12:30 | 49.41754 | 1.78695 | 30025 ft | 531 kts | 42° |
| 2026-05-07 12:31 | 49.47178 | 1.86356 | 30024 ft | 531 kts | 42° |
| 2026-05-07 12:31 | 49.52655 | 1.93899 | 30007 ft | 530 kts | 36° |
| 2026-05-07 12:32 | 49.58628 | 2.00570 | 30037 ft | 529 kts | 35° |
| 2026-05-07 12:32 | 49.64551 | 2.07256 | 30023 ft | 529 kts | 35° |
| 2026-05-07 12:33 | 49.73434 | 2.17358 | 30024 ft | 530 kts | 35° |
| 2026-05-07 12:33 | 49.79385 | 2.24152 | 30024 ft | 530 kts | 35° |
| 2026-05-07 12:34 | 49.85276 | 2.30901 | 30027 ft | 530 kts | 35° |
| 2026-05-07 12:34 | 49.91231 | 2.37743 | 30031 ft | 530 kts | 35° |
| 2026-05-07 12:35 | 49.97127 | 2.44541 | 30035 ft | 530 kts | 35° |
| 2026-05-07 12:35 | 50.03061 | 2.51404 | 30040 ft | 530 kts | 35° |
| 2026-05-07 12:36 | 50.07994 | 2.57125 | 30038 ft | 531 kts | 35° |
| 2026-05-07 12:36 | 50.14929 | 2.65193 | 30035 ft | 531 kts | 36° |
| 2026-05-07 12:37 | 50.20806 | 2.72053 | 30028 ft | 516 kts | 36° |
| 2026-05-07 12:37 | 50.23637 | 2.75359 | 30028 ft | 502 kts | 36° |
| 2026-05-07 12:37 | 50.26375 | 2.78565 | 30030 ft | 491 kts | 36° |
| 2026-05-07 12:38 | 50.31743 | 2.84870 | 30030 ft | 479 kts | 36° |
| 2026-05-07 12:38 | 50.37064 | 2.91140 | 30032 ft | 473 kts | 36° |
| 2026-05-07 12:39 | 50.42312 | 2.97230 | 30020 ft | 467 kts | 31° |
| 2026-05-07 12:39 | 50.47964 | 3.01993 | 30047 ft | 461 kts | 27° |
| 2026-05-07 12:40 | 50.53604 | 3.06734 | 30045 ft | 460 kts | 27° |
| 2026-05-07 12:40 | 50.59232 | 3.11492 | 30052 ft | 462 kts | 27° |
| 2026-05-07 12:41 | 50.64941 | 3.16333 | 30048 ft | 463 kts | 27° |
| 2026-05-07 12:41 | 50.70618 | 3.21161 | 30045 ft | 465 kts | 27° |
| 2026-05-07 12:42 | 50.76263 | 3.26062 | 30074 ft | 463 kts | 22° |
| 2026-05-07 12:42 | 50.82011 | 3.30668 | 29939 ft | 468 kts | 26° |
| 2026-05-07 12:43 | 50.84935 | 3.33105 | 29461 ft | 479 kts | 26° |
| 2026-05-07 12:43 | 50.87832 | 3.35526 | 28947 ft | 472 kts | 26° |
| 2026-05-07 12:43 | 50.90717 | 3.37942 | 28411 ft | 466 kts | 26° |
| 2026-05-07 12:43 | 50.93443 | 3.40228 | 27899 ft | 461 kts | 26° |
| 2026-05-07 12:44 | 50.96244 | 3.42583 | 27366 ft | 457 kts | 26° |
| 2026-05-07 12:44 | 50.99049 | 3.44942 | 26827 ft | 452 kts | 27° |
| 2026-05-07 12:44 | 51.01791 | 3.47254 | 26295 ft | 448 kts | 27° |
| 2026-05-07 12:44 | 51.04541 | 3.49574 | 25759 ft | 443 kts | 27° |
| 2026-05-07 12:45 | 51.07204 | 3.51825 | 25225 ft | 438 kts | 27° |
| 2026-05-07 12:45 | 51.09911 | 3.54114 | 24683 ft | 436 kts | 27° |
| 2026-05-07 12:45 | 51.12578 | 3.56375 | 24158 ft | 434 kts | 27° |
| 2026-05-07 12:45 | 51.15203 | 3.58601 | 24067 ft | 421 kts | 27° |
| 2026-05-07 12:46 | 51.17751 | 3.60764 | 24047 ft | 409 kts | 27° |
| 2026-05-07 12:46 | 51.20211 | 3.62855 | 24011 ft | 399 kts | 27° |
| 2026-05-07 12:46 | 51.22706 | 3.64905 | 23480 ft | 402 kts | 21° |
| 2026-05-07 12:46 | 51.25390 | 3.65787 | 22939 ft | 401 kts | 360° |
| 2026-05-07 12:47 | 51.28166 | 3.65642 | 22466 ft | 402 kts | 358° |
| 2026-05-07 12:47 | 51.30969 | 3.65555 | 21946 ft | 403 kts | 358° |
| 2026-05-07 12:47 | 51.33781 | 3.65456 | 21426 ft | 404 kts | 358° |
| 2026-05-07 12:47 | 51.36576 | 3.65366 | 20916 ft | 405 kts | 358° |
| 2026-05-07 12:48 | 51.39404 | 3.65280 | 20399 ft | 405 kts | 358° |
| 2026-05-07 12:48 | 51.42219 | 3.65195 | 19873 ft | 405 kts | 358° |
| 2026-05-07 12:48 | 51.45039 | 3.65109 | 19379 ft | 405 kts | 358° |
| 2026-05-07 12:48 | 51.47824 | 3.65023 | 18868 ft | 405 kts | 358° |
| 2026-05-07 12:49 | 51.50637 | 3.64938 | 18355 ft | 404 kts | 358° |
| 2026-05-07 12:49 | 51.53433 | 3.64852 | 17996 ft | 399 kts | 358° |
| 2026-05-07 12:49 | 51.56151 | 3.64767 | 17950 ft | 387 kts | 358° |
| 2026-05-07 12:49 | 51.58812 | 3.64685 | 17947 ft | 376 kts | 358° |
| 2026-05-07 12:50 | 51.61363 | 3.64606 | 17947 ft | 366 kts | 358° |
| 2026-05-07 12:50 | 51.63871 | 3.64529 | 17950 ft | 358 kts | 358° |
| 2026-05-07 12:50 | 51.66357 | 3.64452 | 17942 ft | 350 kts | 358° |
| 2026-05-07 12:50 | 51.68762 | 3.64378 | 17939 ft | 344 kts | 358° |
| 2026-05-07 12:51 | 51.71091 | 3.64868 | 17925 ft | 340 kts | 21° |
| 2026-05-07 12:51 | 51.73011 | 3.66988 | 17962 ft | 335 kts | 48° |
| 2026-05-07 12:51 | 51.74315 | 3.70033 | 17984 ft | 331 kts | 57° |
| 2026-05-07 12:51 | 51.75572 | 3.73166 | 17955 ft | 328 kts | 57° |
| 2026-05-07 12:52 | 51.76786 | 3.76235 | 17956 ft | 325 kts | 57° |
| 2026-05-07 12:52 | 51.77996 | 3.79302 | 17958 ft | 323 kts | 57° |
| 2026-05-07 12:52 | 51.79190 | 3.82341 | 17955 ft | 320 kts | 57° |
| 2026-05-07 12:52 | 51.80380 | 3.85371 | 17953 ft | 318 kts | 57° |
| 2026-05-07 12:53 | 51.81575 | 3.88415 | 17652 ft | 326 kts | 57° |
| 2026-05-07 12:53 | 51.82800 | 3.91542 | 17060 ft | 342 kts | 57° |
| 2026-05-07 12:53 | 51.84096 | 3.94850 | 16325 ft | 359 kts | 57° |
| 2026-05-07 12:53 | 51.85455 | 3.98325 | 15576 ft | 372 kts | 57° |
| 2026-05-07 12:54 | 51.86855 | 4.01908 | 14824 ft | 383 kts | 57° |
| 2026-05-07 12:54 | 51.88284 | 4.05571 | 14073 ft | 391 kts | 57° |
| 2026-05-07 12:54 | 51.89739 | 4.09301 | 13334 ft | 396 kts | 57° |
| 2026-05-07 12:54 | 51.91212 | 4.13089 | 12574 ft | 400 kts | 58° |
| 2026-05-07 12:55 | 51.92497 | 4.17089 | 11773 ft | 403 kts | 62° |
| 2026-05-07 12:55 | 51.94150 | 4.20741 | 11023 ft | 405 kts | 48° |
| 2026-05-07 12:55 | 51.95910 | 4.24289 | 10222 ft | 401 kts | 54° |
| 2026-05-07 12:55 | 51.97470 | 4.27786 | 9499 ft | 383 kts | 54° |
| 2026-05-07 12:56 | 51.98849 | 4.30990 | 8876 ft | 305 kts | 55° |
| 2026-05-07 12:56 | 51.99932 | 4.33511 | 8810 ft | 244 kts | 56° |
| 2026-05-07 12:56 | 52.00780 | 4.35598 | 8791 ft | 202 kts | 66° |
| 2026-05-07 12:56 | 52.00889 | 4.37595 | 8807 ft | 164 kts | 103° |
| 2026-05-07 12:57 | 52.00623 | 4.39242 | 8750 ft | 139 kts | 108° |
| 2026-05-07 12:57 | 52.00210 | 4.40824 | 8290 ft | 193 kts | 111° |
| 2026-05-07 12:57 | 52.00106 | 4.42762 | 9550 ft | 154 kts | 60° |
| 2026-05-07 12:57 | 52.00720 | 4.43959 | 9594 ft | 167 kts | 55° |
| 2026-05-07 12:58 | 52.01221 | 4.45887 | 8990 ft | 206 kts | 89° |
| 2026-05-07 12:58 | 52.00957 | 4.48189 | 8796 ft | 213 kts | 105° |
| 2026-05-07 12:58 | 52.00550 | 4.50504 | 8709 ft | 215 kts | 105° |
| 2026-05-07 12:58 | 52.00132 | 4.52849 | 8691 ft | 214 kts | 106° |
| 2026-05-07 12:59 | 51.99762 | 4.55169 | 8670 ft | 213 kts | 94° |
| 2026-05-07 12:59 | 52.00107 | 4.57467 | 8766 ft | 210 kts | 63° |
| 2026-05-07 12:59 | 52.00811 | 4.59647 | 8062 ft | 234 kts | 62° |
| 2026-05-07 12:59 | 52.01587 | 4.62005 | 7322 ft | 245 kts | 62° |
| 2026-05-07 13:00 | 52.02397 | 4.64484 | 6575 ft | 250 kts | 62° |
| 2026-05-07 13:00 | 52.03207 | 4.66981 | 5845 ft | 252 kts | 62° |
| 2026-05-07 13:00 | 52.04007 | 4.69468 | 5108 ft | 253 kts | 63° |
| 2026-05-07 13:00 | 52.04819 | 4.71998 | 4369 ft | 252 kts | 62° |
| 2026-05-07 13:01 | 52.05609 | 4.74479 | 3624 ft | 251 kts | 62° |
| 2026-05-07 13:01 | 52.06394 | 4.76975 | 3102 ft | 240 kts | 62° |
| 2026-05-07 13:01 | 52.07112 | 4.79284 | 3037 ft | 220 kts | 63° |
| 2026-05-07 13:01 | 52.07777 | 4.81431 | 3034 ft | 205 kts | 62° |
| 2026-05-07 13:02 | 52.08408 | 4.83471 | 3028 ft | 197 kts | 63° |
| 2026-05-07 13:02 | 52.09008 | 4.85419 | 3035 ft | 191 kts | 62° |
| 2026-05-07 13:02 | 52.09593 | 4.87327 | 3042 ft | 187 kts | 62° |
| 2026-05-07 13:02 | 52.10180 | 4.89234 | 3051 ft | 186 kts | 62° |
| 2026-05-07 13:03 | 52.10753 | 4.91096 | 3048 ft | 185 kts | 62° |
| 2026-05-07 13:03 | 52.11324 | 4.92954 | 3049 ft | 184 kts | 62° |
| 2026-05-07 13:03 | 52.11829 | 4.94875 | 3048 ft | 184 kts | 69° |
| 2026-05-07 13:03 | 52.12286 | 4.96804 | 3049 ft | 183 kts | 56° |
| 2026-05-07 13:04 | 52.13282 | 4.97972 | 3074 ft | 180 kts | 9° |
| 2026-05-07 13:04 | 52.14486 | 4.97570 | 3085 ft | 184 kts | 325° |
| 2026-05-07 13:04 | 52.15194 | 4.95834 | 3093 ft | 189 kts | 286° |
| 2026-05-07 13:04 | 52.15485 | 4.93731 | 3067 ft | 192 kts | 285° |
| 2026-05-07 13:05 | 52.15795 | 4.91590 | 3062 ft | 193 kts | 285° |
| 2026-05-07 13:05 | 52.16104 | 4.89468 | 3057 ft | 194 kts | 285° |
| 2026-05-07 13:06 | 52.17112 | 4.82510 | 1987 ft | 223 kts | 285° |
| 2026-05-07 13:06 | 52.17457 | 4.80115 | 1700 ft | 210 kts | 285° |
| 2026-05-07 13:06 | 52.17564 | 4.79369 | 1856 ft | 193 kts | 285° |
| 2026-05-07 13:06 | 52.17847 | 4.77415 | 2089 ft | 174 kts | 286° |
| 2026-05-07 13:07 | 52.19195 | 4.75131 | 1561 ft | 180 kts | 352° |
| 2026-05-07 13:07 | 52.21347 | 4.76587 | 1487 ft | 159 kts | 33° |
| 2026-05-07 13:07 | 52.21997 | 4.77080 | 1563 ft | 154 kts | 12° |
| 2026-05-07 13:08 | 52.23371 | 4.77196 | 1793 ft | 143 kts | 7° |
| 2026-05-07 13:08 | 52.24340 | 4.77313 | 1900 ft | 144 kts | 5° |
| 2026-05-07 13:08 | 52.25061 | 4.77374 | 1580 ft | 167 kts | 5° |
| 2026-05-07 13:08 | 52.25827 | 4.77443 | 1205 ft | 182 kts | 5° |